TimePDT,TemperatureF,Dew PointF,Humidity,Sea Level PressureIn,VisibilityMPH,Wind Direction,Wind SpeedMPH,Gust SpeedMPH,PrecipitationIn,Events,Conditions,WindDirDegrees,DateUTC
12:10 AM,53.6,51.8,94,29.48,3.0,South,17.3,26.5,0.06,Rain,Heavy Rain,180,2013-09-29 07:10:00
12:44 AM,51.8,48.2,88,29.50,8.0,SW,13.8,-,0.13,Rain,Light Rain,230,2013-09-29 07:44:00
12:53 AM,52.0,48.0,86,29.49,8.0,SW,12.7,25.3,0.14,Rain,Light Rain,230,2013-09-29 07:53:00
1:53 AM,50.0,45.0,83,29.49,10.0,South,16.1,-,0.06,Rain,Light Rain,180,2013-09-29 08:53:00
2:53 AM,48.9,44.1,83,29.54,10.0,SSW,15.0,26.5,0.00,,Overcast,200,2013-09-29 09:53:00
3:53 AM,46.9,42.1,83,29.58,10.0,SSW,18.4,28.8,N/A,,Overcast,210,2013-09-29 10:53:00
4:53 AM,46.9,42.1,83,29.59,10.0,SSW,16.1,23.0,N/A,,Overcast,210,2013-09-29 11:53:00
5:53 AM,46.9,42.1,83,29.63,10.0,SSW,15.0,26.5,N/A,,Overcast,200,2013-09-29 12:53:00
6:53 AM,46.0,42.1,86,29.64,10.0,SSW,12.7,20.7,N/A,,Overcast,200,2013-09-29 13:53:00
7:53 AM,46.9,41.0,80,29.65,10.0,SSW,15.0,-,N/A,,Overcast,200,2013-09-29 14:53:00
8:53 AM,48.0,42.1,80,29.67,10.0,SSW,12.7,-,N/A,,Mostly Cloudy,200,2013-09-29 15:53:00
9:40 AM,50.0,42.8,76,29.68,10.0,South,13.8,-,N/A,,Mostly Cloudy,190,2013-09-29 16:40:00
9:53 AM,48.9,42.1,77,29.68,10.0,SSW,10.4,-,N/A,,Mostly Cloudy,200,2013-09-29 16:53:00
10:53 AM,51.1,42.1,71,29.67,10.0,South,13.8,-,N/A,,Mostly Cloudy,190,2013-09-29 17:53:00
11:53 AM,53.1,42.1,66,29.68,10.0,SSW,16.1,24.2,N/A,,Mostly Cloudy,210,2013-09-29 18:53:00
12:53 PM,53.1,42.1,66,29.66,10.0,SSW,15.0,24.2,N/A,,Mostly Cloudy,200,2013-09-29 19:53:00
1:53 PM,52.0,45.0,77,29.66,10.0,SSW,15.0,-,0.01,Rain,Light Rain,210,2013-09-29 20:53:00
2:53 PM,51.1,44.1,77,29.65,10.0,South,15.0,25.3,0.01,Rain,Light Rain,180,2013-09-29 21:53:00
3:53 PM,52.0,43.0,71,29.66,10.0,South,18.4,28.8,0.00,Rain,Light Rain,190,2013-09-29 22:53:00
4:53 PM,52.0,44.1,74,29.65,10.0,South,12.7,-,0.01,,Overcast,180,2013-09-29 23:53:00
5:53 PM,52.0,42.1,69,29.63,10.0,South,16.1,26.5,N/A,,Overcast,180,2013-09-30 00:53:00
6:53 PM,51.1,42.1,71,29.62,10.0,South,10.4,-,0.00,Rain,Light Rain,180,2013-09-30 01:53:00
7:53 PM,50.0,43.0,77,29.61,10.0,SSE,13.8,-,0.02,Rain,Light Rain,160,2013-09-30 02:53:00
8:53 PM,48.9,43.0,80,29.57,10.0,SSE,12.7,-,0.01,Rain,Light Rain,150,2013-09-30 03:53:00
9:53 PM,48.0,43.0,83,29.54,10.0,SSE,13.8,-,0.02,Rain,Light Rain,150,2013-09-30 04:53:00
10:53 PM,48.0,44.1,86,29.49,10.0,SSE,12.7,-,0.00,,Overcast,150,2013-09-30 05:53:00
11:53 PM,48.9,44.1,83,29.44,9.0,SSE,11.5,-,0.04,Rain,Light Rain,150,2013-09-30 06:53:00